createdAt,value
2023-01-13T00:02:11.085Z,4.44
2023-01-13T00:17:11.381Z,4.54
2023-01-13T00:32:11.147Z,4.60
2023-01-13T00:47:11.206Z,6.07
2023-01-13T01:02:11.417Z,4.07
2023-01-13T01:17:11.252Z,4.65
2023-01-13T01:32:11.283Z,4.79
2023-01-13T01:47:11.395Z,5.57
2023-01-13T02:02:11.393Z,3.87
2023-01-13T02:17:11.305Z,4.58
2023-01-13T02:32:11.417Z,4.19
2023-01-13T02:47:11.391Z,5.24
2023-01-13T03:02:11.593Z,4.98
2023-01-13T03:17:11.399Z,4.42
2023-01-13T03:32:11.558Z,3.75
2023-01-13T03:47:11.536Z,2.76
2023-01-13T04:02:11.641Z,3.11
2023-01-13T04:17:11.723Z,2.82
2023-01-13T04:32:11.622Z,2.89
2023-01-13T04:47:11.696Z,3.38
2023-01-13T05:02:11.545Z,4.62
2023-01-13T05:17:11.747Z,4.16
2023-01-13T05:32:11.772Z,3.96
2023-01-13T05:47:11.757Z,3.86
2023-01-13T06:02:11.749Z,3.55
2023-01-13T06:17:12.110Z,3.95
2023-01-13T06:32:11.866Z,4.13
2023-01-13T06:47:11.988Z,4.42
2023-01-13T07:02:12.162Z,4.15
2023-01-13T07:17:12.047Z,4.32
2023-01-13T07:32:12.022Z,3.68
2023-01-13T07:47:12.024Z,5.35
2023-01-13T08:02:12.348Z,5.96
2023-01-13T08:17:12.165Z,5.77
2023-01-13T08:32:12.396Z,5.09
2023-01-13T08:47:12.469Z,5.68
2023-01-13T09:02:12.202Z,5.11
2023-01-13T09:17:12.453Z,5.17
2023-01-13T09:32:12.039Z,5.29
2023-01-13T09:47:14.122Z,5.81
2023-01-13T10:02:12.144Z,6.10
2023-01-13T10:17:12.474Z,6.99
2023-01-13T10:32:12.262Z,5.88
2023-01-13T10:47:12.271Z,7.62
2023-01-13T11:02:24.812Z,7.16
2023-01-13T11:17:12.388Z,8.37
2023-01-13T11:32:12.324Z,7.39
2023-01-13T11:47:12.583Z,6.11
2023-01-13T12:02:12.520Z,7.49
2023-01-13T12:17:12.452Z,7.29
2023-01-13T12:32:12.733Z,6.92
2023-01-13T12:47:12.676Z,7.95
2023-01-13T13:02:13.076Z,7.00
2023-01-13T13:17:12.544Z,5.96
2023-01-13T13:32:12.725Z,7.19
2023-01-13T13:47:12.652Z,6.17
2023-01-13T14:02:12.724Z,6.94
2023-01-13T14:17:12.913Z,6.95
2023-01-13T14:32:12.850Z,5.59
2023-01-13T14:47:12.760Z,4.99
2023-01-13T15:02:12.914Z,3.86
2023-01-13T15:17:12.857Z,4.34
2023-01-13T15:32:12.991Z,4.03
2023-01-13T15:47:14.726Z,5.77
2023-01-13T16:02:12.989Z,5.87
2023-01-13T16:17:13.057Z,6.75
2023-01-13T16:32:13.003Z,6.43
2023-01-13T16:47:12.995Z,5.85
2023-01-13T17:02:13.116Z,5.69
2023-01-13T17:17:13.316Z,6.32
2023-01-13T17:32:13.253Z,4.54
2023-01-13T17:47:13.305Z,4.55
2023-01-13T18:02:13.449Z,4.79
2023-01-13T18:17:13.373Z,5.42
2023-01-13T18:32:13.503Z,4.24
2023-01-13T18:47:13.273Z,4.50
2023-01-13T19:02:13.721Z,5.27
2023-01-13T19:17:13.362Z,4.82
2023-01-13T19:32:13.447Z,5.31
2023-01-13T19:47:13.406Z,6.46
2023-01-13T20:02:13.975Z,5.87
2023-01-13T20:17:13.460Z,5.29
2023-01-13T20:32:13.729Z,4.73
2023-01-13T20:47:14.570Z,4.93
2023-01-13T21:02:13.640Z,4.85
2023-01-13T21:17:13.618Z,4.50
2023-01-13T21:32:13.710Z,3.75
2023-01-13T21:47:13.915Z,3.92
2023-01-13T22:02:24.581Z,3.82
2023-01-13T22:17:13.770Z,3.92
2023-01-13T22:32:13.767Z,4.01
2023-01-13T22:47:14.551Z,4.24
2023-01-13T23:02:13.805Z,4.46
2023-01-13T23:17:13.871Z,5.01
2023-01-13T23:32:13.965Z,5.01
2023-01-13T23:47:13.955Z,4.29
